Список аэропортов
Фактическая погода:

01 марта, 22:00
Температура: +4°C (-0.4*)
Ветер: юго-восточный 6 м/с
Давление: *764 мм
облачно
390 м
Время (МСК)Темп. СВетерВлажностьДавлениеОблачностьОсадки
21:00+4ЮВ, 3 м/с77%1021 гПас прояснениями
22:00+3ЮВ, 3 м/с81%1021 гПамалооблачно
23:00+2ЮВ, 4 м/с85%1021 гПас прояснениями
02 марта
00:00+2ЮВ, 5 м/с91%1020 гПаоблачно
01:00+2ЮВ, 5 м/с96%1020 гПаоблачно
02:00+2ЮВ, 5 м/с96%1020 гПаоблачно
03:00+3ЮВ, 5 м/с96%1019 гПаоблачно
04:00+3ЮВ, 4 м/с96%1019 гПаоблачно
05:00+2ЮВ, 4 м/с96%1019 гПаоблачно
06:00+2ЮВ, 4 м/с96%1019 гПаоблачно
07:00+2ЮВ, 4 м/с96%1019 гПаоблачно
08:00+3ЮВ, 4 м/с92%1018 гПаоблачно
09:00+4ЮВ, 4 м/с82%1017 гПаоблачно
10:00+6ЮВ, 4 м/с71%1016 гПаоблачно
11:00+8ЮВ, 4 м/с61%1015 гПаоблачно
12:00+10В, 4 м/с57%1015 гПаоблачно
13:00+11В, 4 м/с54%1014 гПаоблачно
14:00+11В, 4 м/с53%1014 гПаоблачно
15:00+12В, 4 м/с53%1014 гПаоблачно
16:00+12В, 5 м/с54%1014 гПаоблачно
17:00+11В, 4 м/с57%1014 гПаоблачно
18:00+10В, 4 м/с61%1015 гПаоблачно
19:00+9В, 3 м/с66%1015 гПаоблачно
20:00+8В, 3 м/с73%1015 гПаоблачно
21:00+6В, 2 м/с81%1015 гПаоблачно
22:00+5ЮВ, 2 м/с86%1015 гПаоблачно
23:00+4ЮВ, 2 м/с93%1015 гПаоблачно
03 марта
00:00+3ЮВ, 1 м/с96%1015 гПаоблачно
01:00+3ЮВ, 1 м/с97%1014 гПаоблачно
02:00+2В, 1 м/с99%1014 гПаоблачно
03:00+1ЮВ, 1 м/с99%1014 гПаоблачно
04:00+1ЮВ, 1 м/с98%1014 гПаоблачно
05:00+1ЮВ, 1 м/с96%1014 гПаоблачно
06:000Ю, 1 м/с94%1014 гПаоблачно
07:000Ю, 1 м/с93%1013 гПаоблачно
08:00+1Ю, 1 м/с88%1013 гПаоблачно
09:00+4ЮВ, 1 м/с82%1012 гПаоблачно
10:00+7Штиль 69%1011 гПаоблачно
11:00+10СЗ, 1 м/с56%1010 гПаоблачно
12:00+13СЗ, 1 м/с50%1010 гПаоблачно
13:00+15С, 2 м/с47%1010 гПаоблачно
14:00+17С, 2 м/с44%1009 гПаоблачно
15:00+17С, 3 м/с42%1009 гПаоблачно
16:00+16СВ, 3 м/с46%1010 гПаоблачно
17:00+15В, 3 м/с50%1010 гПаоблачно
18:00+14В, 2 м/с55%1011 гПаоблачно
19:00+12В, 1 м/с62%1012 гПаоблачно
20:00+11ЮВ, 1 м/с68%1013 гПаоблачно
21:00+10Ю, 1 м/с72%1013 гПаоблачно